createdAt,value
2023-01-26T00:02:09.040Z,9.00
2023-01-26T00:04:37.403Z,9.00
2023-01-26T00:07:05.392Z,9.00
2023-01-26T00:09:34.300Z,9.00
2023-01-26T00:12:02.418Z,9.00
2023-01-26T00:14:50.141Z,8.90
2023-01-26T00:17:26.411Z,8.90
2023-01-26T00:19:55.992Z,8.90
2023-01-26T00:22:25.046Z,8.90
2023-01-26T00:24:53.403Z,8.90
2023-01-26T00:27:21.431Z,8.90
2023-01-26T00:29:49.729Z,8.90
2023-01-26T00:32:17.824Z,8.90
2023-01-26T00:34:47.636Z,8.80
2023-01-26T00:37:15.705Z,8.80
2023-01-26T00:39:44.720Z,8.80
2023-01-26T00:42:14.304Z,8.90
2023-01-26T00:44:43.854Z,8.90
2023-01-26T00:47:13.606Z,8.80
2023-01-26T00:49:41.767Z,8.80
2023-01-26T00:52:11.779Z,8.80
2023-01-26T00:54:40.309Z,8.80
2023-01-26T00:57:08.473Z,8.80
2023-01-26T00:59:36.796Z,8.80
2023-01-26T01:02:05.125Z,8.70
2023-01-26T01:04:33.417Z,8.70
2023-01-26T01:07:01.867Z,8.70
2023-01-26T01:09:31.499Z,8.70
2023-01-26T01:11:59.605Z,8.60
2023-01-26T01:14:28.721Z,8.60
2023-01-26T01:16:56.842Z,8.60
2023-01-26T01:19:24.926Z,8.60
2023-01-26T01:21:52.870Z,8.60
2023-01-26T01:24:21.009Z,8.60
2023-01-26T01:26:50.846Z,8.60
2023-01-26T01:29:19.255Z,8.60
2023-01-26T01:31:47.331Z,8.60
2023-01-26T01:34:15.574Z,8.60
2023-01-26T01:36:43.796Z,8.60
2023-01-26T01:39:12.154Z,8.60
2023-01-26T01:41:40.121Z,8.60
2023-01-26T01:44:19.059Z,8.60
2023-01-26T01:46:51.774Z,8.60
2023-01-26T01:49:24.380Z,8.50
2023-01-26T01:51:58.984Z,8.40
2023-01-26T01:54:32.175Z,8.40
2023-01-26T01:57:04.052Z,8.20
2023-01-26T01:59:34.006Z,8.10
2023-01-26T02:02:02.176Z,8.30
2023-01-26T02:04:30.517Z,8.30
2023-01-26T02:07:01.948Z,8.40
2023-01-26T02:09:52.219Z,8.30
2023-01-26T02:12:23.745Z,8.20
2023-01-26T02:14:54.487Z,8.30
2023-01-26T02:17:22.778Z,8.40
2023-01-26T02:20:08.371Z,8.40
2023-01-26T02:22:46.479Z,8.40
2023-01-26T02:25:28.387Z,8.40
2023-01-26T02:27:58.443Z,8.20
2023-01-26T02:30:28.849Z,8.10
2023-01-26T02:32:57.079Z,8.00
2023-01-26T02:35:25.053Z,8.00
2023-01-26T02:37:54.104Z,8.10
2023-01-26T02:40:43.814Z,8.20
2023-01-26T02:43:13.524Z,8.20
2023-01-26T02:45:42.623Z,8.10
2023-01-26T02:48:10.561Z,8.20
2023-01-26T02:50:38.612Z,8.10
2023-01-26T02:53:06.716Z,8.10
2023-01-26T02:55:34.647Z,8.10
2023-01-26T02:58:04.688Z,8.10
2023-01-26T03:00:37.693Z,8.10
2023-01-26T03:03:14.413Z,8.10
2023-01-26T03:05:42.588Z,8.00
2023-01-26T03:08:10.593Z,8.00
2023-01-26T03:10:39.416Z,7.90
2023-01-26T03:13:08.149Z,7.80
2023-01-26T03:15:43.494Z,7.90
2023-01-26T03:18:44.417Z,7.90
2023-01-26T03:21:33.723Z,7.90
2023-01-26T03:24:21.719Z,7.80
2023-01-26T03:27:11.803Z,7.80
2023-01-26T03:29:40.313Z,7.80
2023-01-26T03:32:09.931Z,7.80
2023-01-26T03:34:42.881Z,7.90
2023-01-26T03:37:11.758Z,7.90
2023-01-26T03:40:04.484Z,7.80
2023-01-26T03:42:51.041Z,7.80
2023-01-26T03:45:37.520Z,7.80
2023-01-26T03:48:27.619Z,7.70
2023-01-26T03:51:14.017Z,7.80
2023-01-26T03:54:01.352Z,7.70
2023-01-26T03:56:33.114Z,7.70
2023-01-26T03:59:09.496Z,7.80
2023-01-26T04:01:41.573Z,7.70
2023-01-26T04:04:30.527Z,7.60
2023-01-26T04:07:16.689Z,7.30
2023-01-26T04:09:48.810Z,7.50
2023-01-26T04:12:16.803Z,7.60
2023-01-26T04:15:21.287Z,7.60
2023-01-26T04:18:07.468Z,7.60
2023-01-26T04:20:56.057Z,7.70
2023-01-26T04:23:24.015Z,7.60
2023-01-26T04:25:52.753Z,7.60
2023-01-26T04:28:20.624Z,7.50
2023-01-26T04:30:49.709Z,7.50
2023-01-26T04:33:17.607Z,7.40
2023-01-26T04:35:46.920Z,7.30
2023-01-26T04:38:14.951Z,7.20
2023-01-26T04:40:43.445Z,7.20
2023-01-26T04:43:11.736Z,7.30
2023-01-26T04:45:39.559Z,7.40
2023-01-26T04:48:08.188Z,7.40
2023-01-26T04:50:35.987Z,7.40
2023-01-26T04:53:06.213Z,7.40
2023-01-26T04:55:34.527Z,7.40
2023-01-26T04:58:03.685Z,7.40
2023-01-26T05:00:38.447Z,7.30
2023-01-26T05:03:07.228Z,7.40
2023-01-26T05:05:37.583Z,7.30
2023-01-26T05:08:07.377Z,7.30
2023-01-26T05:10:35.638Z,7.30
2023-01-26T05:13:25.801Z,7.30
2023-01-26T05:16:17.456Z,7.40
2023-01-26T05:19:11.457Z,7.40
2023-01-26T05:21:52.784Z,7.40
2023-01-26T05:24:22.214Z,7.40
2023-01-26T05:27:21.785Z,7.30
2023-01-26T05:30:00.921Z,7.20
2023-01-26T05:32:32.286Z,7.20
2023-01-26T05:35:00.237Z,7.20
2023-01-26T05:37:29.066Z,7.20
2023-01-26T05:39:59.065Z,7.10
2023-01-26T05:42:27.957Z,7.20
2023-01-26T05:45:24.246Z,7.20
2023-01-26T05:47:54.661Z,7.30
2023-01-26T05:50:22.531Z,7.20
2023-01-26T05:53:10.365Z,7.30
2023-01-26T05:55:40.401Z,7.30
2023-01-26T05:58:08.466Z,7.40
2023-01-26T06:00:36.268Z,7.40
2023-01-26T06:03:09.871Z,7.40
2023-01-26T06:05:39.104Z,7.40
2023-01-26T06:08:15.460Z,7.40
2023-01-26T06:11:11.600Z,7.40
2023-01-26T06:13:46.829Z,7.40
2023-01-26T06:16:21.857Z,7.40
2023-01-26T06:18:50.941Z,7.40
2023-01-26T06:21:19.992Z,7.40
2023-01-26T06:23:47.908Z,7.30
2023-01-26T06:26:17.352Z,7.30
2023-01-26T06:28:45.819Z,7.40
2023-01-26T06:31:16.590Z,7.40
2023-01-26T06:33:44.839Z,7.40
2023-01-26T06:36:14.515Z,7.40
2023-01-26T06:38:46.928Z,7.50
2023-01-26T06:41:16.571Z,7.50
2023-01-26T06:43:46.703Z,7.40
2023-01-26T06:46:15.105Z,7.40
2023-01-26T06:48:44.038Z,7.40
2023-01-26T06:51:44.803Z,7.40
2023-01-26T06:54:13.489Z,7.40
2023-01-26T06:57:02.893Z,7.40
2023-01-26T07:00:06.944Z,7.40
2023-01-26T07:02:41.451Z,7.40
2023-01-26T07:05:11.188Z,7.50
2023-01-26T07:07:40.303Z,7.50
2023-01-26T07:10:09.298Z,7.50
2023-01-26T07:12:44.008Z,7.50
2023-01-26T07:15:13.200Z,7.50
2023-01-26T07:17:40.999Z,7.60
2023-01-26T07:20:10.321Z,7.60
2023-01-26T07:22:38.290Z,7.60
2023-01-26T07:25:06.464Z,7.50
2023-01-26T07:27:34.321Z,7.50
2023-01-26T07:30:04.179Z,7.50
2023-01-26T07:32:32.536Z,7.50
2023-01-26T07:35:00.453Z,7.50
2023-01-26T07:37:28.634Z,7.60
2023-01-26T07:39:56.306Z,7.70
2023-01-26T07:42:24.185Z,7.60
2023-01-26T07:45:06.981Z,7.70
2023-01-26T07:47:36.350Z,7.70
2023-01-26T07:50:06.357Z,7.70
2023-01-26T07:52:34.640Z,7.70
2023-01-26T07:55:03.083Z,7.70
2023-01-26T07:57:31.612Z,7.80
2023-01-26T07:59:59.832Z,7.80
2023-01-26T08:02:29.981Z,7.80
2023-01-26T08:04:58.632Z,7.80
2023-01-26T08:07:26.763Z,7.90
2023-01-26T08:09:54.843Z,7.90
2023-01-26T08:12:23.165Z,7.90
2023-01-26T08:14:51.310Z,7.90
2023-01-26T08:17:19.808Z,8.00
2023-01-26T08:19:49.557Z,8.00
2023-01-26T08:22:17.780Z,8.10
2023-01-26T08:24:46.074Z,8.10
2023-01-26T08:27:15.115Z,8.10
2023-01-26T08:29:43.914Z,8.20
2023-01-26T08:32:12.105Z,8.20
2023-01-26T08:34:40.363Z,8.20
2023-01-26T08:37:10.095Z,8.30
2023-01-26T08:39:38.170Z,8.40
2023-01-26T08:42:06.528Z,8.40
2023-01-26T08:44:34.606Z,8.40
2023-01-26T08:47:03.195Z,8.40
2023-01-26T08:49:31.408Z,8.50
2023-01-26T08:51:59.589Z,8.40
2023-01-26T08:54:29.451Z,8.50
2023-01-26T08:56:58.794Z,8.50
2023-01-26T08:59:26.946Z,8.50
2023-01-26T09:01:56.275Z,8.60
2023-01-26T09:04:24.517Z,8.70
2023-01-26T09:06:52.904Z,8.70
2023-01-26T09:09:21.577Z,8.80
2023-01-26T09:11:51.355Z,8.90
2023-01-26T09:14:19.612Z,8.90
2023-01-26T09:16:48.078Z,9.00
2023-01-26T09:19:16.315Z,9.10
2023-01-26T09:21:44.535Z,9.20
2023-01-26T09:24:13.085Z,9.30
2023-01-26T09:26:41.201Z,9.40
2023-01-26T09:29:10.908Z,9.40
2023-01-26T09:31:39.692Z,9.60
2023-01-26T09:34:07.966Z,9.60
2023-01-26T09:36:36.372Z,9.70
2023-01-26T09:39:04.592Z,9.80
2023-01-26T09:41:52.026Z,9.70
2023-01-26T09:44:25.743Z,9.70
2023-01-26T09:47:05.096Z,9.90
2023-01-26T09:49:46.154Z,9.90
2023-01-26T09:52:24.359Z,10.00
2023-01-26T09:54:55.308Z,10.00
2023-01-26T09:57:28.655Z,10.00
2023-01-26T10:00:03.166Z,10.10
2023-01-26T10:02:51.003Z,10.20
2023-01-26T10:05:25.651Z,10.20
2023-01-26T10:07:54.006Z,10.20
2023-01-26T10:10:30.074Z,10.20
2023-01-26T10:12:59.245Z,10.30
2023-01-26T10:15:33.581Z,10.40
2023-01-26T10:18:06.934Z,10.40
2023-01-26T10:20:37.656Z,10.40
2023-01-26T10:23:11.842Z,10.40
2023-01-26T10:25:41.445Z,10.50
2023-01-26T10:28:14.923Z,10.50
2023-01-26T10:30:46.840Z,10.50
2023-01-26T10:33:18.587Z,10.60
2023-01-26T10:35:48.089Z,10.70
2023-01-26T10:38:39.720Z,10.80
2023-01-26T10:41:20.796Z,10.70
2023-01-26T10:43:53.737Z,10.80
2023-01-26T10:46:29.811Z,10.90
2023-01-26T10:49:00.643Z,10.90
2023-01-26T10:51:31.143Z,11.00
2023-01-26T10:54:22.171Z,11.10
2023-01-26T10:56:52.925Z,11.20
2023-01-26T10:59:33.938Z,11.20
2023-01-26T11:02:21.784Z,11.30
2023-01-26T11:05:19.032Z,11.20
2023-01-26T11:07:48.823Z,11.30
2023-01-26T11:10:28.525Z,11.30
2023-01-26T11:13:18.118Z,11.50
2023-01-26T11:15:48.542Z,11.40
2023-01-26T11:18:36.141Z,11.40
2023-01-26T11:21:12.197Z,11.60
2023-01-26T11:23:50.871Z,11.50
2023-01-26T11:26:53.961Z,11.60
2023-01-26T11:29:50.715Z,11.70
2023-01-26T11:32:25.264Z,11.60
2023-01-26T11:35:07.241Z,11.50
2023-01-26T11:37:42.925Z,11.30
2023-01-26T11:40:38.282Z,11.30
2023-01-26T11:43:47.661Z,11.30
2023-01-26T11:46:28.342Z,11.30
2023-01-26T11:49:13.611Z,11.50
2023-01-26T11:52:01.032Z,11.60
2023-01-26T11:54:41.631Z,11.60
2023-01-26T11:57:20.222Z,11.70
2023-01-26T11:59:53.674Z,11.50
2023-01-26T12:02:29.335Z,11.40
2023-01-26T12:05:03.609Z,11.20
2023-01-26T12:07:51.622Z,11.30
2023-01-26T12:10:24.408Z,11.20
2023-01-26T12:12:58.660Z,11.10
2023-01-26T12:15:33.090Z,11.40
2023-01-26T12:18:06.047Z,11.70
2023-01-26T12:20:40.368Z,11.90
2023-01-26T12:23:17.148Z,11.90
2023-01-26T12:25:49.526Z,12.10
2023-01-26T12:28:23.308Z,12.20
2023-01-26T12:30:58.109Z,12.20
2023-01-26T12:33:26.588Z,12.30
2023-01-26T12:36:27.285Z,12.30
2023-01-26T12:39:08.534Z,12.40
2023-01-26T12:42:06.120Z,12.50
2023-01-26T12:44:37.276Z,12.40
2023-01-26T12:47:12.546Z,12.40
2023-01-26T12:49:46.755Z,12.50
2023-01-26T12:52:22.607Z,12.60
2023-01-26T12:55:00.036Z,12.70
2023-01-26T12:57:35.383Z,12.80
2023-01-26T13:00:06.758Z,12.80
2023-01-26T13:02:36.727Z,12.90
2023-01-26T13:05:05.915Z,12.80
2023-01-26T13:07:36.458Z,12.70
2023-01-26T13:10:28.340Z,12.70
2023-01-26T13:12:59.244Z,12.70
2023-01-26T13:15:29.180Z,12.60
2023-01-26T13:18:01.462Z,12.50
2023-01-26T13:20:53.496Z,12.40
2023-01-26T13:23:52.649Z,12.50
2023-01-26T13:26:41.890Z,12.40
2023-01-26T13:29:32.651Z,12.20
2023-01-26T13:32:02.961Z,12.30
2023-01-26T13:34:37.273Z,12.30
2023-01-26T13:37:11.580Z,12.30
2023-01-26T13:39:43.303Z,12.40
2023-01-26T13:42:23.100Z,12.40
2023-01-26T13:44:57.260Z,12.40
2023-01-26T13:47:33.323Z,12.40
2023-01-26T13:50:01.589Z,12.20
2023-01-26T13:52:29.859Z,12.20
2023-01-26T13:54:58.502Z,12.20
2023-01-26T13:57:31.963Z,12.00
2023-01-26T14:00:01.313Z,12.10
2023-01-26T14:02:36.526Z,11.80
2023-01-26T14:05:05.375Z,11.70
2023-01-26T14:07:38.319Z,11.80
2023-01-26T14:10:08.208Z,11.80
2023-01-26T14:12:44.314Z,11.60
2023-01-26T14:15:22.902Z,11.40
2023-01-26T14:17:53.156Z,11.40
2023-01-26T14:20:26.893Z,11.30
2023-01-26T14:23:14.145Z,11.30
2023-01-26T14:25:45.594Z,11.30
2023-01-26T14:28:17.397Z,11.40
2023-01-26T14:30:52.465Z,11.20
2023-01-26T14:33:22.513Z,11.10
2023-01-26T14:35:57.677Z,11.00
2023-01-26T14:38:29.054Z,10.90
2023-01-26T14:40:58.999Z,10.90
2023-01-26T14:43:34.231Z,10.80
2023-01-26T14:46:08.425Z,10.70
2023-01-26T14:48:40.295Z,10.70
2023-01-26T14:51:16.687Z,10.70
2023-01-26T14:53:50.560Z,10.70
2023-01-26T14:56:20.589Z,10.70
2023-01-26T14:58:53.712Z,10.70
2023-01-26T15:01:24.366Z,10.70
2023-01-26T15:04:02.886Z,10.60
2023-01-26T15:06:32.198Z,10.60
2023-01-26T15:09:02.925Z,10.60
2023-01-26T15:12:09.605Z,10.50
2023-01-26T15:14:49.516Z,10.20
2023-01-26T15:17:37.646Z,10.10
2023-01-26T15:20:26.785Z,10.20
2023-01-26T15:22:55.124Z,10.30
2023-01-26T15:25:26.533Z,10.30
2023-01-26T15:27:59.198Z,10.40
2023-01-26T15:30:31.085Z,10.30
2023-01-26T15:32:59.400Z,10.30
2023-01-26T15:35:28.214Z,10.20
2023-01-26T15:38:04.080Z,10.30
2023-01-26T15:40:44.209Z,10.20
2023-01-26T15:43:13.421Z,10.50
2023-01-26T15:45:46.739Z,11.20
2023-01-26T15:48:14.530Z,11.60
2023-01-26T15:50:42.751Z,12.00
2023-01-26T15:53:13.553Z,12.10
2023-01-26T15:55:41.916Z,11.50
2023-01-26T15:58:09.840Z,11.20
2023-01-26T16:00:39.163Z,11.00
2023-01-26T16:03:14.603Z,10.90
2023-01-26T16:05:42.534Z,10.60
2023-01-26T16:08:10.669Z,10.20
2023-01-26T16:10:38.652Z,9.90
2023-01-26T16:13:10.634Z,9.70
2023-01-26T16:15:42.173Z,9.50
2023-01-26T16:18:12.124Z,9.40
2023-01-26T16:20:41.771Z,9.40
2023-01-26T16:23:18.229Z,9.20
2023-01-26T16:25:46.611Z,9.20
2023-01-26T16:28:14.813Z,9.10
2023-01-26T16:30:44.222Z,9.00
2023-01-26T16:33:15.590Z,8.80
2023-01-26T16:35:43.727Z,8.60
2023-01-26T16:38:14.250Z,8.60
2023-01-26T16:40:43.394Z,8.60
2023-01-26T16:43:16.726Z,8.60
2023-01-26T16:45:44.501Z,8.60
2023-01-26T16:48:15.251Z,8.60
2023-01-26T16:50:44.497Z,8.60
2023-01-26T16:53:19.365Z,8.50
2023-01-26T16:55:47.077Z,8.40
2023-01-26T16:58:14.711Z,8.40
2023-01-26T17:00:42.627Z,8.30
2023-01-26T17:03:26.467Z,8.10
2023-01-26T17:05:54.920Z,8.10
2023-01-26T17:08:22.580Z,8.10
2023-01-26T17:11:01.634Z,8.10
2023-01-26T17:13:31.649Z,8.10
2023-01-26T17:15:59.705Z,8.00
2023-01-26T17:18:29.860Z,7.90
2023-01-26T17:21:03.041Z,8.00
2023-01-26T17:23:31.799Z,8.10
2023-01-26T17:26:00.127Z,8.00
2023-01-26T17:28:28.111Z,8.00
2023-01-26T17:30:55.966Z,8.10
2023-01-26T17:33:23.896Z,8.00
2023-01-26T17:36:01.108Z,8.10
2023-01-26T17:38:39.013Z,8.10
2023-01-26T17:41:07.201Z,8.10
2023-01-26T17:43:35.128Z,8.10
2023-01-26T17:46:05.967Z,8.20
2023-01-26T17:48:35.180Z,8.10
2023-01-26T17:51:07.378Z,8.10
2023-01-26T17:53:38.293Z,8.20
2023-01-26T17:56:08.406Z,7.90
2023-01-26T17:58:37.074Z,7.90
2023-01-26T18:01:05.701Z,7.90
2023-01-26T18:03:33.930Z,7.90
2023-01-26T18:06:01.815Z,7.90
2023-01-26T18:08:31.130Z,7.70
2023-01-26T18:10:59.849Z,7.70
2023-01-26T18:13:28.431Z,7.70
2023-01-26T18:15:56.319Z,7.70
2023-01-26T18:18:25.059Z,7.70
2023-01-26T18:20:53.299Z,7.70
2023-01-26T18:23:21.880Z,7.80
2023-01-26T18:25:51.448Z,7.80
2023-01-26T18:28:26.087Z,7.80
2023-01-26T18:30:55.913Z,7.90
2023-01-26T18:33:24.085Z,7.80
2023-01-26T18:35:51.864Z,7.80
2023-01-26T18:38:19.527Z,7.80
2023-01-26T18:40:47.158Z,7.60
2023-01-26T18:43:16.301Z,7.70
2023-01-26T18:45:44.043Z,7.50
2023-01-26T18:48:11.745Z,7.50
2023-01-26T18:50:39.471Z,7.60
2023-01-26T18:53:07.345Z,7.50
2023-01-26T18:55:35.096Z,7.60
2023-01-26T18:58:02.990Z,7.60
2023-01-26T19:00:32.644Z,7.60
2023-01-26T19:03:00.324Z,7.70
2023-01-26T19:05:28.713Z,7.60
2023-01-26T19:08:10.332Z,7.60
2023-01-26T19:10:38.774Z,7.60
2023-01-26T19:13:06.920Z,7.60
2023-01-26T19:15:36.159Z,7.60
2023-01-26T19:18:04.345Z,7.60
2023-01-26T19:20:32.273Z,7.60
2023-01-26T19:23:01.839Z,7.60
2023-01-26T19:25:29.870Z,7.50
2023-01-26T19:27:57.478Z,7.50
2023-01-26T19:30:25.293Z,7.60
2023-01-26T19:33:12.779Z,7.50
2023-01-26T19:35:40.543Z,7.60
2023-01-26T19:38:08.304Z,7.50
2023-01-26T19:40:35.922Z,7.60
2023-01-26T19:43:06.693Z,7.50
2023-01-26T19:45:35.066Z,7.50
2023-01-26T19:48:05.147Z,7.60
2023-01-26T19:50:33.906Z,7.60
2023-01-26T19:53:02.215Z,7.50
2023-01-26T19:55:32.297Z,7.50
2023-01-26T19:58:00.699Z,7.60
2023-01-26T20:03:25.699Z,7.40
2023-01-26T20:05:54.190Z,7.50
2023-01-26T20:08:22.503Z,7.50
2023-01-26T20:10:51.684Z,7.40
2023-01-26T20:13:20.835Z,7.40
2023-01-26T20:15:49.738Z,7.40
2023-01-26T20:18:19.137Z,7.40
2023-01-26T20:20:52.305Z,7.50
2023-01-26T20:23:21.232Z,7.50
2023-01-26T20:25:51.316Z,7.50
2023-01-26T20:28:20.222Z,7.40
2023-01-26T20:30:48.743Z,7.30
2023-01-26T20:33:17.437Z,7.40
2023-01-26T20:35:46.157Z,7.40
2023-01-26T20:38:16.134Z,7.40
2023-01-26T20:40:44.781Z,7.20
2023-01-26T20:43:13.147Z,7.20
2023-01-26T20:45:42.110Z,7.30
2023-01-26T20:48:10.822Z,7.30
2023-01-26T20:50:40.489Z,7.10
2023-01-26T20:53:09.490Z,7.20
2023-01-26T20:55:39.327Z,7.20
2023-01-26T20:58:07.737Z,7.20
2023-01-26T21:00:37.108Z,7.20
2023-01-26T21:03:06.074Z,7.20
2023-01-26T21:05:34.554Z,7.10
2023-01-26T21:08:02.959Z,7.10
2023-01-26T21:10:31.223Z,7.10
2023-01-26T21:13:01.213Z,7.10
2023-01-26T21:15:29.589Z,6.90
2023-01-26T21:17:58.809Z,6.90
2023-01-26T21:20:27.181Z,6.90
2023-01-26T21:22:56.541Z,6.80
2023-01-26T21:25:24.773Z,6.90
2023-01-26T21:27:53.671Z,7.00
2023-01-26T21:30:23.491Z,7.00
2023-01-26T21:32:53.483Z,6.90
2023-01-26T21:35:21.657Z,6.90
2023-01-26T21:37:59.397Z,6.80
2023-01-26T21:40:28.144Z,6.90
2023-01-26T21:42:56.558Z,6.70
2023-01-26T21:45:44.743Z,6.50
2023-01-26T21:48:28.499Z,6.50
2023-01-26T21:51:15.096Z,6.60
2023-01-26T21:53:43.639Z,6.50
2023-01-26T21:56:13.228Z,6.40
2023-01-26T21:59:17.038Z,6.40
2023-01-26T22:01:49.133Z,6.40
2023-01-26T22:04:19.679Z,6.20
2023-01-26T22:06:48.480Z,6.20
2023-01-26T22:09:18.302Z,6.20
2023-01-26T22:11:46.958Z,6.20
2023-01-26T22:14:17.830Z,6.20
2023-01-26T22:16:47.741Z,6.30
2023-01-26T22:19:16.263Z,6.30
2023-01-26T22:21:45.174Z,6.20
2023-01-26T22:24:15.060Z,6.20
2023-01-26T22:26:43.605Z,6.10
2023-01-26T22:29:15.680Z,6.20
2023-01-26T22:31:44.208Z,6.10
2023-01-26T22:34:14.391Z,6.00
2023-01-26T22:36:42.895Z,6.20
2023-01-26T22:39:12.556Z,6.20
2023-01-26T22:41:41.168Z,6.20
2023-01-26T22:44:10.027Z,6.30
2023-01-26T22:46:47.315Z,6.40
2023-01-26T22:49:17.700Z,6.40
2023-01-26T22:51:46.214Z,6.40
2023-01-26T22:54:14.596Z,6.30
2023-01-26T22:56:42.746Z,6.30
2023-01-26T22:59:10.899Z,6.30
2023-01-26T23:01:39.170Z,6.40
2023-01-26T23:04:07.860Z,6.40
2023-01-26T23:06:37.777Z,6.40
2023-01-26T23:09:06.094Z,6.40
2023-01-26T23:11:34.228Z,6.40
2023-01-26T23:14:02.648Z,6.50
2023-01-26T23:16:31.240Z,6.50
2023-01-26T23:19:00.220Z,6.50
2023-01-26T23:21:29.917Z,6.40
2023-01-26T23:23:59.679Z,6.30
2023-01-26T23:26:28.025Z,6.20
2023-01-26T23:28:56.200Z,6.40
2023-01-26T23:31:24.620Z,6.40
2023-01-26T23:33:52.839Z,6.40
2023-01-26T23:36:21.377Z,6.30
2023-01-26T23:38:49.583Z,6.30
2023-01-26T23:41:19.598Z,6.30
2023-01-26T23:43:47.963Z,6.30
2023-01-26T23:46:16.307Z,6.20
2023-01-26T23:48:44.547Z,6.20
2023-01-26T23:51:13.240Z,6.10
2023-01-26T23:53:41.644Z,6.10
2023-01-26T23:56:12.806Z,6.10
2023-01-26T23:58:42.683Z,6.10
